EMPK1: COTTONWOOD R AT EMPORIA

                                SHEF ID:       EMPK1     COTTONWOOD R AT EMPORIA
STATION TYPE:

STAGE RIV-FLOW BAT-LOAD
ft cfs volt
Ccp-Rev Ccp-Rev Ccp-Rev
(America/Chicago)
04/26 00:00 7.32 2326 12.81
04/26 01:00 7.06 2180 12.81
04/26 02:00 6.83 2054 12.73
04/26 03:00 6.60 1930 12.73
04/26 04:00 6.39 1819 12.73
04/26 05:00 6.18 1710 12.73
04/26 06:00 5.99 1613 12.65
04/26 07:00 5.81 1524 12.65
04/26 08:00 5.64 1441 12.97
04/26 09:00 5.49 1369 13.29
04/26 10:00 5.35 1302 13.68
04/26 11:00 5.22 1242 13.68
04/26 12:00 5.10 1187 ----
04/26 13:00 4.99 1137 13.53
04/26 14:00 4.89 1093 13.21
04/26 15:00 4.85 1075 12.89
04/26 16:00 5.02 1151 12.89
04/26 17:00 5.03 1155 13.68
04/26 18:00 4.92 1106 13.44
04/26 19:00 4.81 1058 13.37
04/26 20:00 4.74 1027 13.29
04/26 21:00 4.69 1006 12.81
04/26 22:00 4.65 988 12.73
04/26 23:00 4.65 988 12.73
Data processed at Mon 27Apr2026 04:36 GMT

NOTICE: If you are parsing this page

Please convert to using our Data API. Starting early 2026 we will be migrating to: https://water.usace.army.mil with modern pages rendered in JavaScript. When this migration completes you will no longer be able to scrape this page! CWMSDataAPI (CDA)

Timeseries IDs (TSIDs)

TSIDs used from left to right in the data table
CEMP.Stage.Inst.1Hour.0.Ccp-Rev
CEMP.Flow.Inst.1Hour.0.Ccp-Rev
CEMP.Volt-Battery Load.Inst.1Hour.0.Ccp-Rev

                            

All information presented herein is the property of the government of the United States of America and may be revised or deleted at any time without prior notice. Dissemination of this information without the expressed written consent of the Public Affairs Office, Tulsa District U.S. Army Corps of Engineers is strictly prohibited. These data are gathered electronically and, as presented, have NOT undergone any form of quality control. These data are NOT guaranteed to be valid or correct.